Terminal Aerodrome Forecast
Issued by NWS Jacksonville, FL

Home | Current Version | Previous Version | Text Only | Print | Product List | Glossary On
Versions: 1 2 3 4 5 6 7 8 9 10 11 12 13 14 15 16
000
FTUS42 KJAX 310814 AAA
TAFGNV
TAF AMD
KGNV 310814Z 3108/0106 27004KT P6SM SCT100
     FM311300 28006KT P6SM SCT050 SCT100
     FM312000 23008KT P6SM VCTS SCT045CB BKN200
     FM010200 18005KT P6SM SCT050 SCT100=

USA.gov is the U.S. government's official web portal to all federal, state and local government web resources and services.